createdAt,value
2022-08-12T00:02:04.595Z,43.28
2022-08-12T00:07:58.518Z,43.39
2022-08-12T00:13:48.137Z,43.38
2022-08-12T00:19:37.723Z,43.45
2022-08-12T00:26:05.798Z,43.53
2022-08-12T00:31:36.982Z,44.13
2022-08-12T00:37:26.567Z,43.87
2022-08-12T00:43:00.098Z,43.66
2022-08-12T00:48:32.017Z,43.83
2022-08-12T00:54:04.436Z,44.39
2022-08-12T00:59:36.512Z,43.76
2022-08-12T01:05:38.399Z,44.56
2022-08-12T01:11:28.601Z,44.14
2022-08-12T01:17:00.134Z,44.29
2022-08-12T01:22:38.926Z,44.47
2022-08-12T01:28:13.877Z,44.50
2022-08-12T01:34:00.021Z,44.63
2022-08-12T01:39:34.123Z,44.74
2022-08-12T01:45:06.200Z,44.73
2022-08-12T01:50:37.260Z,44.70
2022-08-12T01:56:09.537Z,44.42
2022-08-12T02:01:40.648Z,44.47
2022-08-12T02:07:46.877Z,44.41
2022-08-12T02:13:48.552Z,44.46
2022-08-12T02:19:55.261Z,44.56
2022-08-12T02:25:33.227Z,44.88
2022-08-12T02:31:06.866Z,44.35
2022-08-12T02:36:39.661Z,44.89
2022-08-12T02:42:12.156Z,44.23
2022-08-12T02:47:59.261Z,44.70
2022-08-12T02:53:34.783Z,44.45
2022-08-12T02:59:07.076Z,44.32
2022-08-12T03:04:51.831Z,44.26
2022-08-12T03:10:37.542Z,44.80
2022-08-12T03:16:09.870Z,44.48
2022-08-12T03:21:58.010Z,44.45
2022-08-12T03:27:33.383Z,44.56
2022-08-12T03:33:06.472Z,44.45
2022-08-12T03:38:43.200Z,44.56
2022-08-12T03:44:39.308Z,44.87
2022-08-12T03:50:29.770Z,45.09
2022-08-12T03:56:19.251Z,44.79
2022-08-12T04:01:58.604Z,44.97
2022-08-12T04:07:30.499Z,45.03
2022-08-12T04:13:19.932Z,44.95
2022-08-12T04:18:53.423Z,44.74
2022-08-12T04:24:25.905Z,45.38
2022-08-12T04:30:17.144Z,45.41
2022-08-12T04:35:49.941Z,45.21
2022-08-12T04:41:21.580Z,48.33
2022-08-12T04:46:54.688Z,49.75
2022-08-12T04:52:25.717Z,50.61
2022-08-12T04:57:57.271Z,50.96
2022-08-12T05:03:28.412Z,52.40
2022-08-12T05:09:17.431Z,52.37
2022-08-12T05:14:48.791Z,52.67
2022-08-12T05:20:23.310Z,53.11
2022-08-12T05:25:57.218Z,53.94
2022-08-12T05:31:42.509Z,54.62
2022-08-12T05:37:22.883Z,53.84
2022-08-12T05:42:54.392Z,54.48
2022-08-12T05:48:25.709Z,54.42
2022-08-12T05:54:00.291Z,53.93
2022-08-12T05:59:33.086Z,54.36
2022-08-12T06:05:10.737Z,52.49
2022-08-12T06:10:42.377Z,54.33
2022-08-12T06:16:16.976Z,54.05
2022-08-12T06:21:49.286Z,54.01
2022-08-12T06:27:21.783Z,52.99
2022-08-12T06:33:04.203Z,52.90
2022-08-12T06:38:50.444Z,52.13
2022-08-12T06:44:23.516Z,52.58
2022-08-12T06:49:54.523Z,50.90
2022-08-12T06:55:26.306Z,51.24
2022-08-12T07:00:58.834Z,51.32
2022-08-12T07:06:30.357Z,50.02
2022-08-12T07:12:01.420Z,50.13
2022-08-12T07:17:37.991Z,49.64
2022-08-12T07:23:11.031Z,49.38
2022-08-12T07:28:45.526Z,47.77
2022-08-12T07:34:17.335Z,47.80
2022-08-12T07:39:50.759Z,47.19
2022-08-12T07:45:31.055Z,45.73
2022-08-12T07:51:02.629Z,44.97
2022-08-12T07:56:33.975Z,44.29
2022-08-12T08:02:05.110Z,43.69
2022-08-12T08:07:36.184Z,43.47
2022-08-12T08:13:08.996Z,43.46
2022-08-12T08:18:40.408Z,44.30
2022-08-12T08:24:14.783Z,44.83
2022-08-12T08:29:46.141Z,44.59
2022-08-12T08:35:17.134Z,44.14
2022-08-12T08:41:06.810Z,43.53
2022-08-12T08:46:38.386Z,43.37
2022-08-12T08:52:12.045Z,42.94
2022-08-12T08:57:47.893Z,43.40
2022-08-12T09:05:07.198Z,42.96
2022-08-12T09:09:14.509Z,42.68
2022-08-12T09:14:46.795Z,42.37
2022-08-12T09:20:33.876Z,42.24
2022-08-12T09:26:08.161Z,42.55
2022-08-12T09:32:04.253Z,41.65
2022-08-12T09:37:57.854Z,41.64
2022-08-12T09:43:47.032Z,40.70
2022-08-12T09:49:25.273Z,41.04
2022-08-12T09:55:02.282Z,40.82
2022-08-12T10:00:52.030Z,40.45
2022-08-12T10:06:32.465Z,41.04
2022-08-12T10:12:32.809Z,41.55
2022-08-12T10:18:14.870Z,41.34
2022-08-12T10:23:51.602Z,40.78
2022-08-12T10:30:02.859Z,40.55
2022-08-12T10:35:38.229Z,40.58
2022-08-12T10:41:58.177Z,40.07
2022-08-12T10:47:26.431Z,40.03
2022-08-12T10:53:15.609Z,40.09
2022-08-12T10:58:52.243Z,39.38
2022-08-12T11:04:41.382Z,40.00
2022-08-12T11:10:16.409Z,39.85
2022-08-12T11:16:19.558Z,38.92
2022-08-12T11:21:58.410Z,39.32
2022-08-12T11:27:32.988Z,39.29
2022-08-12T11:39:01.314Z,39.06
2022-08-12T11:44:42.935Z,38.81
2022-08-12T11:50:19.586Z,38.56
2022-08-12T11:55:52.579Z,38.59
2022-08-12T12:02:01.716Z,38.73
2022-08-12T12:07:15.169Z,38.16
2022-08-12T12:12:50.108Z,38.72
2022-08-12T12:18:30.715Z,39.36
2022-08-12T12:24:02.271Z,39.69
2022-08-12T12:30:18.915Z,39.11
2022-08-12T12:36:06.504Z,38.99
2022-08-12T12:41:16.824Z,38.77
2022-08-12T12:46:49.823Z,39.91
2022-08-12T12:52:21.492Z,41.67
2022-08-12T12:58:00.969Z,43.20
2022-08-12T13:03:48.772Z,43.82
2022-08-12T13:09:22.320Z,44.41
2022-08-12T13:14:54.259Z,44.53
2022-08-12T13:20:37.768Z,44.93
2022-08-12T13:26:14.414Z,44.51
2022-08-12T13:32:19.087Z,44.17
2022-08-12T13:37:43.774Z,44.48
2022-08-12T13:43:40.554Z,44.71
2022-08-12T13:49:20.479Z,44.28
2022-08-12T13:55:06.366Z,43.90
2022-08-12T14:00:38.597Z,43.26
2022-08-12T14:06:15.350Z,42.98
2022-08-12T14:11:59.199Z,43.08
2022-08-12T14:17:31.494Z,43.13
2022-08-12T14:24:01.451Z,43.18
2022-08-12T14:29:02.590Z,42.94
2022-08-12T14:34:33.884Z,43.15
2022-08-12T14:40:06.332Z,43.14
2022-08-12T14:45:49.084Z,43.47
2022-08-12T14:52:54.672Z,43.32
2022-08-12T14:57:20.284Z,43.52
2022-08-12T15:02:55.677Z,43.51
2022-08-12T15:08:38.820Z,43.41
2022-08-12T15:14:11.457Z,43.32
2022-08-12T15:20:11.191Z,43.14
2022-08-12T15:25:39.963Z,42.77
2022-08-12T15:31:27.453Z,42.97
2022-08-12T15:36:59.703Z,42.67
2022-08-12T15:42:30.575Z,42.60
2022-08-12T15:48:17.098Z,42.53
2022-08-12T15:54:05.822Z,42.30
2022-08-12T16:00:06.728Z,42.48
2022-08-12T16:06:19.455Z,42.68
2022-08-12T16:11:43.415Z,42.56
2022-08-12T16:17:15.863Z,42.77
2022-08-12T16:22:52.211Z,42.76
2022-08-12T16:28:28.206Z,42.84
2022-08-12T16:34:00.986Z,42.63
2022-08-12T16:40:00.382Z,42.55
2022-08-12T16:45:58.146Z,42.33
2022-08-12T16:51:20.061Z,42.36
2022-08-12T16:56:57.967Z,42.43
2022-08-12T17:02:33.692Z,42.37
2022-08-12T17:08:10.791Z,42.67
2022-08-12T17:13:53.139Z,42.71
2022-08-12T17:20:29.301Z,42.95
2022-08-12T17:25:17.560Z,43.04
2022-08-12T17:30:57.394Z,43.39
2022-08-12T17:36:35.847Z,43.36
2022-08-12T17:42:32.922Z,43.37
2022-08-12T17:48:12.153Z,43.70
2022-08-12T17:54:05.967Z,43.61
2022-08-12T17:59:47.558Z,43.84
2022-08-12T18:05:23.072Z,43.90
2022-08-12T18:11:15.370Z,44.09
2022-08-12T18:17:08.291Z,44.18
2022-08-12T18:22:46.592Z,44.29
2022-08-12T18:28:29.035Z,44.44
2022-08-12T18:34:06.552Z,44.48
2022-08-12T18:39:58.908Z,44.31
2022-08-12T18:45:31.367Z,44.23
2022-08-12T18:51:21.968Z,44.56
2022-08-12T18:57:16.322Z,44.53
2022-08-12T19:02:53.830Z,44.32
2022-08-12T19:08:30.191Z,44.51
2022-08-12T19:14:20.074Z,44.70
2022-08-12T19:19:52.117Z,44.64
2022-08-12T19:26:00.546Z,44.81
2022-08-12T19:31:45.381Z,44.84
2022-08-12T19:38:04.366Z,44.80
2022-08-12T19:43:22.432Z,44.75
2022-08-12T19:49:02.885Z,44.96
2022-08-12T19:54:35.625Z,45.01
2022-08-12T20:00:07.906Z,44.92
2022-08-12T20:06:05.882Z,44.78
2022-08-12T20:12:11.564Z,44.86
2022-08-12T20:17:34.516Z,44.88
2022-08-12T20:28:40.092Z,44.62
2022-08-12T20:34:12.461Z,44.34
2022-08-12T20:39:52.988Z,44.28
2022-08-12T20:45:39.996Z,44.49
2022-08-12T20:51:21.544Z,44.48
2022-08-12T20:56:53.006Z,44.32
2022-08-12T21:02:30.465Z,44.43
2022-08-12T21:08:02.466Z,44.48
2022-08-12T21:13:39.519Z,44.43
2022-08-12T21:19:22.467Z,44.59
2022-08-12T21:24:55.985Z,44.64
2022-08-12T21:30:34.079Z,44.74
2022-08-12T21:36:14.276Z,45.10
2022-08-12T21:41:56.181Z,44.69
2022-08-12T21:47:28.640Z,44.83
2022-08-12T21:53:02.401Z,44.93
2022-08-12T21:58:42.313Z,44.89
2022-08-12T22:04:32.015Z,45.19
2022-08-12T22:10:04.888Z,44.85
2022-08-12T22:15:36.197Z,45.38
2022-08-12T22:21:09.324Z,45.19
2022-08-12T22:26:43.735Z,44.98
2022-08-12T22:32:16.515Z,45.81
2022-08-12T22:37:53.702Z,45.11
2022-08-12T22:43:58.964Z,45.14
2022-08-12T22:49:37.060Z,45.46
2022-08-12T22:55:59.575Z,45.98
2022-08-12T23:01:50.195Z,45.28
2022-08-12T23:07:08.303Z,45.32
2022-08-12T23:13:01.718Z,45.69
2022-08-12T23:18:36.488Z,45.65
2022-08-12T23:24:10.461Z,45.69
2022-08-12T23:29:43.335Z,45.89
2022-08-12T23:35:46.090Z,45.91
2022-08-12T23:41:29.441Z,45.96
2022-08-12T23:47:18.186Z,45.96
2022-08-12T23:52:51.294Z,46.15
2022-08-12T23:58:28.476Z,45.97
